SWR93B SBGR-LSZH
Flight info
| Callsign | SWR93B |
|---|---|
| Flight time | N/A |
| Altitude | 35000 |
| Route | VUMEV UZ14 AMBET UN857 EDVUP/N0465F370 UN857 ERETU DCT TURUP UA302 ANITI UR975 SAKLI/N0451F390 UR975 ARDAR UA854 BRENA UA29 TRB DCT DAAG/N0445F400 DCT RISEP DCT OBLAD DCT SOSUR DCT MFB DCT EMMEF DCT BANKO DCT KORED/N0369F260 N871 BERSU |
| Aircraft | A343/H-SDE2E3FGHIJ4J5M1RWXY/LB1D1 |
Departure
| Time | N/A |
|---|---|
| Airport | São Paulo/Guarulhos–Governor André Franco Montoro International Airport (SBGR) |
Arrival
| Time | 2026-05-04 11:47 |
|---|---|
| Airport | Zürich Airport (LSZH) |
| Time | Latitude | Longitude | Altitude | Speed | Heading |
|---|---|---|---|---|---|
| 2026-05-04 10:40 | 40.37127 | 4.99995 | 39036 ft | 496 kts | 353° |
| 2026-05-04 10:41 | 40.40584 | 5.00027 | 39016 ft | 496 kts | 353° |
| 2026-05-04 10:41 | 40.47487 | 5.00089 | 39012 ft | 496 kts | 353° |
| 2026-05-04 10:42 | 40.54397 | 5.00153 | 39014 ft | 496 kts | 353° |
| 2026-05-04 10:42 | 40.61305 | 5.00216 | 39012 ft | 496 kts | 353° |
| 2026-05-04 10:43 | 40.68169 | 5.00279 | 39011 ft | 496 kts | 353° |
| 2026-05-04 10:45 | 40.95867 | 5.00533 | 39012 ft | 499 kts | 353° |
| 2026-05-04 10:45 | 41.02816 | 5.00599 | 39027 ft | 499 kts | 353° |
| 2026-05-04 10:46 | 41.09713 | 5.00664 | 39006 ft | 498 kts | 353° |
| 2026-05-04 10:46 | 41.16648 | 5.00729 | 39007 ft | 498 kts | 353° |
| 2026-05-04 10:47 | 41.23596 | 5.00793 | 39006 ft | 498 kts | 353° |
| 2026-05-04 10:47 | 41.30544 | 5.00857 | 39007 ft | 499 kts | 353° |
| 2026-05-04 10:49 | 41.58349 | 5.01119 | 39006 ft | 501 kts | 353° |
| 2026-05-04 10:50 | 41.65335 | 5.01186 | 39006 ft | 501 kts | 353° |
| 2026-05-04 10:52 | 41.93301 | 5.01135 | 39007 ft | 503 kts | 351° |
| 2026-05-04 10:52 | 42.00298 | 5.00942 | 39008 ft | 503 kts | 351° |
| 2026-05-04 10:54 | 42.28323 | 5.00333 | 39005 ft | 505 kts | 351° |
| 2026-05-04 10:56 | 42.52972 | 5.00552 | 39025 ft | 518 kts | 6° |
| 2026-05-04 10:56 | 42.56446 | 5.01992 | 39011 ft | 527 kts | 18° |
| 2026-05-04 10:56 | 42.59710 | 5.04346 | 39021 ft | 535 kts | 31° |
| 2026-05-04 10:57 | 42.62693 | 5.07402 | 39021 ft | 538 kts | 36° |
| 2026-05-04 10:57 | 42.68415 | 5.14023 | 39021 ft | 541 kts | 38° |
| 2026-05-04 10:58 | 42.74021 | 5.20772 | 39027 ft | 542 kts | 38° |
| 2026-05-04 10:58 | 42.79688 | 5.27550 | 39028 ft | 542 kts | 38° |
| 2026-05-04 10:59 | 42.84408 | 5.33154 | 39027 ft | 541 kts | 38° |
| 2026-05-04 10:59 | 42.90098 | 5.39902 | 39050 ft | 541 kts | 38° |
| 2026-05-04 11:00 | 42.95761 | 5.46633 | 39034 ft | 539 kts | 38° |
| 2026-05-04 11:02 | 43.18332 | 5.73652 | 39040 ft | 537 kts | 38° |
| 2026-05-04 11:05 | 43.64853 | 6.10676 | 39067 ft | 514 kts | 10° |
| 2026-05-04 11:06 | 43.71752 | 6.13310 | 39072 ft | 513 kts | 10° |
| 2026-05-04 11:06 | 43.78580 | 6.15946 | 39074 ft | 512 kts | 11° |
| 2026-05-04 11:10 | 44.26493 | 6.34651 | 39103 ft | 512 kts | 12° |
| 2026-05-04 11:12 | 44.53974 | 6.45518 | 39123 ft | 514 kts | 12° |
| 2026-05-04 11:12 | 44.60849 | 6.48257 | 39129 ft | 513 kts | 12° |
| 2026-05-04 11:13 | 44.67708 | 6.50996 | 39138 ft | 511 kts | 12° |
| 2026-05-04 11:13 | 44.74516 | 6.53720 | 39141 ft | 511 kts | 12° |
| 2026-05-04 11:14 | 44.81372 | 6.56471 | 39163 ft | 512 kts | 12° |
| 2026-05-04 11:16 | 45.08662 | 6.67858 | 39152 ft | 513 kts | 16° |
| 2026-05-04 11:16 | 45.15359 | 6.71371 | 39145 ft | 513 kts | 17° |
| 2026-05-04 11:17 | 45.22041 | 6.74845 | 39138 ft | 514 kts | 17° |
| 2026-05-04 11:19 | 45.48936 | 6.88510 | 39137 ft | 511 kts | 16° |
| 2026-05-04 11:19 | 45.55638 | 6.91922 | 39143 ft | 511 kts | 16° |
| 2026-05-04 11:20 | 45.62314 | 6.95339 | 39124 ft | 508 kts | 17° |
| 2026-05-04 11:20 | 45.68917 | 6.98731 | 39127 ft | 507 kts | 17° |
| 2026-05-04 11:22 | 45.95798 | 7.10233 | 39076 ft | 502 kts | 11° |
| 2026-05-04 11:23 | 46.02600 | 7.12555 | 39049 ft | 503 kts | 11° |
| 2026-05-04 11:24 | 46.22649 | 7.19487 | 38151 ft | 477 kts | 11° |
| 2026-05-04 11:25 | 46.25860 | 7.20605 | 37852 ft | 473 kts | 11° |
| 2026-05-04 11:25 | 46.29064 | 7.21720 | 37579 ft | 475 kts | 11° |
| 2026-05-04 11:25 | 46.32277 | 7.22838 | 37291 ft | 475 kts | 11° |
| 2026-05-04 11:26 | 46.38693 | 7.25075 | 36271 ft | 474 kts | 11° |
| 2026-05-04 11:27 | 46.61577 | 7.33097 | 31453 ft | 491 kts | 12° |
| 2026-05-04 11:28 | 46.64896 | 7.34266 | 30974 ft | 487 kts | 12° |
| 2026-05-04 11:28 | 46.68176 | 7.35417 | 30456 ft | 484 kts | 12° |
| 2026-05-04 11:28 | 46.71442 | 7.36573 | 29935 ft | 481 kts | 12° |
| 2026-05-04 11:28 | 46.74681 | 7.37722 | 29384 ft | 477 kts | 12° |
| 2026-05-04 11:29 | 46.77889 | 7.38862 | 28867 ft | 472 kts | 12° |
| 2026-05-04 11:29 | 46.81062 | 7.40049 | 28351 ft | 468 kts | 17° |
| 2026-05-04 11:29 | 46.84047 | 7.41924 | 27822 ft | 465 kts | 30° |
| 2026-05-04 11:29 | 46.86623 | 7.44735 | 27315 ft | 460 kts | 46° |
| 2026-05-04 11:31 | 47.00324 | 7.69517 | 23797 ft | 440 kts | 53° |
| 2026-05-04 11:33 | 47.13189 | 7.93551 | 20346 ft | 414 kts | 58° |
| 2026-05-04 11:33 | 47.14574 | 7.97219 | 19905 ft | 409 kts | 66° |
| 2026-05-04 11:33 | 47.15790 | 8.00976 | 19440 ft | 406 kts | 67° |
| 2026-05-04 11:34 | 47.16978 | 8.04724 | 18982 ft | 403 kts | 67° |
| 2026-05-04 11:34 | 47.18157 | 8.08442 | 18540 ft | 400 kts | 67° |
| 2026-05-04 11:34 | 47.19334 | 8.12140 | 18054 ft | 398 kts | 67° |
| 2026-05-04 11:34 | 47.20501 | 8.15828 | 17482 ft | 397 kts | 67° |
| 2026-05-04 11:35 | 47.21816 | 8.19408 | 16649 ft | 399 kts | 58° |
| 2026-05-04 11:35 | 47.23586 | 8.22513 | 15438 ft | 393 kts | 42° |
| 2026-05-04 11:35 | 47.25878 | 8.24636 | 14019 ft | 388 kts | 19° |
| 2026-05-04 11:35 | 47.28463 | 8.25562 | 12563 ft | 379 kts | 7° |
| 2026-05-04 11:36 | 47.31054 | 8.26090 | 11306 ft | 370 kts | 6° |
| 2026-05-04 11:36 | 47.33519 | 8.26560 | 10760 ft | 344 kts | 6° |
| 2026-05-04 11:36 | 47.35806 | 8.27005 | 10290 ft | 321 kts | 6° |
| 2026-05-04 11:36 | 47.37922 | 8.27424 | 10010 ft | 299 kts | 6° |
| 2026-05-04 11:37 | 47.39935 | 8.27827 | 9627 ft | 286 kts | 6° |
| 2026-05-04 11:37 | 47.41900 | 8.28219 | 9324 ft | 285 kts | 6° |
| 2026-05-04 11:37 | 47.43863 | 8.28613 | 9024 ft | 285 kts | 7° |
| 2026-05-04 11:37 | 47.45830 | 8.29011 | 8705 ft | 284 kts | 7° |
| 2026-05-04 11:38 | 47.47784 | 8.29409 | 8397 ft | 284 kts | 7° |
| 2026-05-04 11:38 | 47.49746 | 8.29565 | 8088 ft | 282 kts | 353° |
| 2026-05-04 11:38 | 47.51582 | 8.28684 | 7767 ft | 277 kts | 326° |
| 2026-05-04 11:38 | 47.53080 | 8.26927 | 7476 ft | 274 kts | 315° |
| 2026-05-04 11:39 | 47.54464 | 8.25003 | 7187 ft | 273 kts | 315° |
| 2026-05-04 11:39 | 47.55839 | 8.23071 | 6886 ft | 272 kts | 315° |
| 2026-05-04 11:40 | 47.65198 | 8.19585 | 5960 ft | 253 kts | 48° |
| 2026-05-04 11:41 | 47.66320 | 8.21507 | 5976 ft | 241 kts | 57° |
| 2026-05-04 11:41 | 47.67009 | 8.23731 | 5977 ft | 237 kts | 79° |
| 2026-05-04 11:41 | 47.66998 | 8.26119 | 5981 ft | 232 kts | 107° |
| 2026-05-04 11:41 | 47.66360 | 8.28306 | 5976 ft | 232 kts | 123° |
| 2026-05-04 11:42 | 47.65352 | 8.30177 | 5947 ft | 234 kts | 135° |
| 2026-05-04 11:42 | 47.64159 | 8.31825 | 5734 ft | 234 kts | 137° |
| 2026-05-04 11:42 | 47.62950 | 8.33452 | 5399 ft | 236 kts | 136° |
| 2026-05-04 11:42 | 47.61742 | 8.35125 | 5030 ft | 237 kts | 135° |
| 2026-05-04 11:43 | 47.60545 | 8.36768 | 4675 ft | 229 kts | 135° |
| 2026-05-04 11:43 | 47.59418 | 8.38308 | 4348 ft | 216 kts | 135° |
| 2026-05-04 11:43 | 47.58343 | 8.39778 | 4080 ft | 204 kts | 136° |
| 2026-05-04 11:43 | 47.57331 | 8.41163 | 3840 ft | 192 kts | 136° |
| 2026-05-04 11:44 | 47.56363 | 8.42488 | 3578 ft | 189 kts | 136° |
| 2026-05-04 11:44 | 47.55393 | 8.43814 | 3321 ft | 189 kts | 136° |
| 2026-05-04 11:44 | 47.54449 | 8.45103 | 3088 ft | 179 kts | 136° |
| 2026-05-04 11:44 | 47.53554 | 8.46326 | 2833 ft | 171 kts | 136° |
| 2026-05-04 11:45 | 47.52707 | 8.47481 | 2611 ft | 160 kts | 136° |
| 2026-05-04 11:45 | 47.51921 | 8.48552 | 2407 ft | 147 kts | 136° |
| 2026-05-04 11:45 | 47.51200 | 8.49536 | 2214 ft | 137 kts | 134° |
| 2026-05-04 11:45 | 47.50495 | 8.50473 | 2077 ft | 137 kts | 136° |
| 2026-05-04 11:46 | 47.49797 | 8.51436 | 1899 ft | 138 kts | 134° |
| 2026-05-04 11:46 | 47.49082 | 8.52402 | 1704 ft | 138 kts | 134° |
| 2026-05-04 11:46 | 47.48613 | 8.53042 | 1566 ft | 139 kts | 136° |
| 2026-05-04 11:46 | 47.47918 | 8.54005 | 1421 ft | 134 kts | 134° |
| 2026-05-04 11:47 | 47.47342 | 8.54796 | 1405 ft | 88 kts | 139° |
| 2026-05-04 11:47 | 47.47014 | 8.55235 | 1403 ft | 49 kts | 136° |
| 2026-05-04 11:47 | 47.46927 | 8.55358 | 1402 ft | 47 kts | 136° |
| 2026-05-04 11:47 | 47.46773 | 8.55560 | 1406 ft | 33 kts | 144° |
| 2026-05-04 11:48 | 47.46631 | 8.55661 | 1400 ft | 16 kts | 163° |
| 2026-05-04 11:48 | 47.46557 | 8.55692 | 1403 ft | 16 kts | 165° |
| 2026-05-04 11:48 | 47.46448 | 8.55728 | 1409 ft | 16 kts | 167° |
| 2026-05-04 11:48 | 47.46347 | 8.55808 | 1413 ft | 16 kts | 138° |
| 2026-05-04 11:49 | 47.46269 | 8.55890 | 1412 ft | 5 kts | 177° |
| 2026-05-04 11:49 | 47.46253 | 8.55864 | 1414 ft | 5 kts | 234° |
| 2026-05-04 11:49 | 47.46235 | 8.55803 | 1411 ft | 6 kts | 235° |
| 2026-05-04 11:49 | 47.46206 | 8.55788 | 1416 ft | 4 kts | 186° |
| 2026-05-04 11:50 | 47.46181 | 8.55783 | 1410 ft | 3 kts | 187° |
| 2026-05-04 11:50 | 47.46158 | 8.55779 | 1411 ft | 4 kts | 186° |
| 2026-05-04 11:50 | 47.46153 | 8.55779 | 1412 ft | 0 kts | 186° |